Gustavus, AK

1:40 AM AKST on December 18, 2014 (GMT -0900)
Gustavus | Change Station
CLOSE
Current Station
Airport
Location: Gustavus,
Elevation: 30 ft
Nearby Weather Stations

Elev 30 ft 58.43 °N, 135.71 °W | Updated 4 minutes ago

Mostly Cloudy
Mostly Cloudy
30 °F
Feels Like 24 °F
N
6
Wind Variable Wind from NNW

Today
High -- | Low -- °F
--% Chance of Precip.
Yesterday
High -- | Low -- °F
Precip. -- in
8:57 AM 3:11 PM
Waning Crescent, 15% visible
Pressure 29.62 in
Visibility 10.0 miles
Clouds Mostly Cloudy 9000 ft
Windchill 24 °F
Dew Point 28 °F
Humidity 93%
Rainfall 0.00 in
Snow Depth Not available.
UV 0 out of 12
Pollen Not available.
Air Quality Not available.
Flu Activity Not available.
METAR PAGS 181036Z AUTO 34005KT 10SM BKN090 M01/M02 A2962 RMK AO1 PNO

More Conditions Fewer Conditions

Pressure 29.62 in
Visibility 10.0 miles
Clouds Mostly Cloudy 9000 ft
Windchill 24 °F
Dew Point 28 °F
Humidity 93%
Rainfall 0.00 in
Snow Depth Not available.
UV 0 out of 12
Pollen Not available.
Air Quality Not available.
Flu Activity Not available.
METAR PAGS 181036Z AUTO 34005KT 10SM BKN090 M01/M02 A2962 RMK AO1 PNO

More Conditions Fewer Conditions

10-Day Weather Forecast

Almanac

Astronomy

Dec. 18, 2014 Rise Set
Actual Time
Civil Twilight
Nautical Twilight
Astronomical Twilight
Moon
Length of Visible Light
Length of Day
Tomorrow will be .
, % of the Moon is Illuminated

Today's Extremes

State Highs State Lows

Community

WunderPhotos

Upload Photos

1,778,917 photos uploaded!

WunderBlogs® & News

Nearby

Air Quality

  Air Quality AQ Index Pollutant
Not available.

Snow Depth

Station Depth Elevation

Earthquake Activity

City Distance Mag. Time & Date
Minimum magnitude displayed is 2.5.

Coastal Water Temperatures

Place Temperature

Nearby Weather Stations